createdAt,value
2024-01-24T00:02:02.859Z,0.20
2024-01-24T00:04:29.896Z,0.25
2024-01-24T00:07:00.079Z,0.20
2024-01-24T00:09:27.107Z,0.28
2024-01-24T00:11:54.780Z,0.15
2024-01-24T00:14:21.544Z,0.10
2024-01-24T00:16:48.396Z,0.30
2024-01-24T00:19:15.414Z,0.30
2024-01-24T00:21:42.369Z,0.10
2024-01-24T00:24:10.154Z,0.17
2024-01-24T00:26:40.141Z,0.20
2024-01-24T00:29:08.879Z,0.22
2024-01-24T00:31:35.851Z,0.38
2024-01-24T00:34:03.510Z,0.20
2024-01-24T00:36:30.311Z,0.30
2024-01-24T00:38:57.047Z,0.20
2024-01-24T00:41:23.900Z,0.20
2024-01-24T00:43:50.654Z,0.50
2024-01-24T00:46:17.316Z,0.20
2024-01-24T00:48:44.257Z,0.17
2024-01-24T00:51:13.600Z,0.25
2024-01-24T00:53:42.064Z,0.35
2024-01-24T00:56:08.762Z,0.20
2024-01-24T00:58:35.639Z,0.20
2024-01-24T01:01:03.212Z,0.10
2024-01-24T01:03:33.318Z,0.08
2024-01-24T01:06:00.214Z,0.35
2024-01-24T01:08:27.797Z,0.10
2024-01-24T01:10:54.409Z,0.10
2024-01-24T01:13:23.929Z,0.20
2024-01-24T01:15:50.673Z,0.10
2024-01-24T01:18:18.688Z,0.40
2024-01-24T01:20:46.048Z,0.03
2024-01-24T01:23:12.769Z,0.38
2024-01-24T01:25:39.405Z,0.20
2024-01-24T01:28:06.365Z,0.22
2024-01-24T01:30:32.999Z,0.73
2024-01-24T01:32:59.871Z,0.75
2024-01-24T01:35:26.582Z,0.60
2024-01-24T01:37:53.179Z,0.70
2024-01-24T01:40:19.945Z,0.40
2024-01-24T01:42:47.068Z,0.30
2024-01-24T01:45:14.148Z,0.10
2024-01-24T01:47:41.235Z,0.10
2024-01-24T01:50:11.633Z,0.20
2024-01-24T01:52:39.944Z,0.10
2024-01-24T01:55:08.171Z,0.20
2024-01-24T01:57:35.565Z,0.20
2024-01-24T02:00:04.035Z,0.20
2024-01-24T02:02:31.132Z,0.10
2024-01-24T02:04:57.852Z,0.20
2024-01-24T02:07:24.833Z,0.10
2024-01-24T02:09:51.551Z,0.28
2024-01-24T02:12:18.166Z,0.10
2024-01-24T02:14:44.731Z,0.08
2024-01-24T02:17:11.325Z,0.20
2024-01-24T02:19:38.271Z,0.10
2024-01-24T02:22:04.900Z,0.13
2024-01-24T02:24:31.587Z,0.20
2024-01-24T02:26:58.278Z,0.20
2024-01-24T02:29:24.834Z,0.30
2024-01-24T02:31:51.572Z,0.13
2024-01-24T02:34:18.332Z,0.20
2024-01-24T02:36:44.997Z,0.15
2024-01-24T02:39:12.546Z,0.10
2024-01-24T02:41:41.348Z,0.15
2024-01-24T02:44:08.096Z,0.22
2024-01-24T02:46:35.486Z,0.15
2024-01-24T02:49:02.718Z,0.20
2024-01-24T02:51:29.601Z,0.20
2024-01-24T02:53:56.504Z,0.35
2024-01-24T02:56:23.202Z,0.35
2024-01-24T02:58:49.818Z,0.40
2024-01-24T03:01:17.322Z,0.70
2024-01-24T03:03:46.928Z,0.40
2024-01-24T03:06:13.781Z,0.60
2024-01-24T03:08:51.134Z,0.43
2024-01-24T03:11:17.861Z,0.43
2024-01-24T03:13:45.195Z,0.30
2024-01-24T03:16:12.047Z,0.68
2024-01-24T03:18:40.277Z,0.45
2024-01-24T03:21:10.124Z,0.60
2024-01-24T03:23:40.375Z,0.52
2024-01-24T03:26:07.819Z,0.32
2024-01-24T03:28:35.453Z,0.30
2024-01-24T03:31:03.246Z,0.40
2024-01-24T03:33:30.106Z,0.30
2024-01-24T03:35:56.792Z,0.52
2024-01-24T03:38:23.871Z,0.40
2024-01-24T03:40:50.569Z,0.40
2024-01-24T03:43:17.156Z,0.50
2024-01-24T03:45:43.833Z,0.28
2024-01-24T03:48:10.524Z,0.57
2024-01-24T03:50:37.152Z,0.60
2024-01-24T03:53:04.076Z,0.57
2024-01-24T03:55:33.031Z,0.50
2024-01-24T03:58:02.681Z,0.43
2024-01-24T04:00:29.368Z,0.70
2024-01-24T04:02:56.042Z,0.40
2024-01-24T04:05:22.731Z,0.40
2024-01-24T04:07:49.383Z,0.50
2024-01-24T04:10:17.194Z,0.40
2024-01-24T04:12:54.600Z,0.52
2024-01-24T04:15:23.787Z,0.20
2024-01-24T04:17:50.582Z,0.47
2024-01-24T04:20:17.489Z,0.30
2024-01-24T04:22:44.084Z,0.32
2024-01-24T04:25:10.701Z,0.25
2024-01-24T04:27:37.531Z,0.60
2024-01-24T04:30:05.768Z,0.30
2024-01-24T04:32:33.254Z,0.77
2024-01-24T04:35:00.170Z,0.30
2024-01-24T04:37:26.954Z,0.50
2024-01-24T04:39:53.785Z,0.50
2024-01-24T04:42:20.641Z,0.40
2024-01-24T04:44:47.462Z,0.45
2024-01-24T04:47:17.065Z,0.38
2024-01-24T04:49:45.680Z,0.47
2024-01-24T04:52:15.428Z,0.40
2024-01-24T04:54:45.331Z,0.95
2024-01-24T04:57:12.056Z,0.22
2024-01-24T04:59:46.599Z,0.28
2024-01-24T05:02:20.922Z,0.55
2024-01-24T05:04:48.922Z,0.32
2024-01-24T05:07:16.053Z,0.28
2024-01-24T05:09:42.827Z,0.40
2024-01-24T05:12:09.452Z,0.47
2024-01-24T05:14:36.178Z,0.47
2024-01-24T05:17:02.876Z,0.60
2024-01-24T05:19:29.871Z,0.30
2024-01-24T05:21:57.671Z,0.43
2024-01-24T05:24:24.491Z,0.70
2024-01-24T05:26:51.089Z,0.30
2024-01-24T05:29:18.016Z,0.40
2024-01-24T05:31:44.747Z,0.40
2024-01-24T05:34:11.547Z,0.35
2024-01-24T05:36:38.560Z,0.40
2024-01-24T05:39:08.704Z,0.28
2024-01-24T05:41:36.782Z,0.25
2024-01-24T05:44:04.586Z,0.45
2024-01-24T05:46:31.523Z,0.52
2024-01-24T05:49:01.922Z,0.20
2024-01-24T05:51:32.717Z,0.32
2024-01-24T05:54:02.118Z,0.45
2024-01-24T05:56:39.323Z,1.05
2024-01-24T05:59:06.608Z,0.30
2024-01-24T06:01:55.070Z,0.35
2024-01-24T06:08:38.235Z,0.40
2024-01-24T06:17:52.558Z,0.40
2024-01-24T06:24:46.190Z,0.32
2024-01-24T06:27:36.606Z,0.45
2024-01-24T06:30:29.800Z,0.75
2024-01-24T06:33:20.391Z,0.40
2024-01-24T06:39:46.321Z,0.35
2024-01-24T06:42:35.099Z,0.50
2024-01-24T06:46:54.939Z,0.50
2024-01-24T06:48:53.912Z,0.47
2024-01-24T06:51:53.011Z,0.65
2024-01-24T06:55:09.665Z,0.32
2024-01-24T06:57:49.188Z,0.30
2024-01-24T07:04:20.534Z,0.25
2024-01-24T07:07:10.889Z,0.43
2024-01-24T07:09:38.728Z,0.30
2024-01-24T07:13:03.584Z,0.40
2024-01-24T07:15:46.616Z,0.40
2024-01-24T07:18:40.025Z,0.35
2024-01-24T07:24:28.064Z,0.30
2024-01-24T07:27:05.424Z,0.20
2024-01-24T07:30:05.863Z,0.50
2024-01-24T07:36:10.187Z,0.57
2024-01-24T07:39:12.522Z,0.22
2024-01-24T07:42:16.847Z,0.28
2024-01-24T07:48:04.937Z,0.20
2024-01-24T07:51:05.435Z,0.28
2024-01-24T07:53:35.851Z,0.30
2024-01-24T07:56:20.840Z,0.52
2024-01-24T08:01:45.193Z,0.20
2024-01-24T08:04:34.483Z,0.20
2024-01-24T08:09:57.892Z,0.17
2024-01-24T08:12:31.790Z,0.10
2024-01-24T08:15:14.195Z,0.20
2024-01-24T08:17:48.098Z,0.30
2024-01-24T08:20:26.196Z,0.43
2024-01-24T08:23:03.232Z,0.28
2024-01-24T08:25:33.786Z,0.17
2024-01-24T08:28:14.021Z,0.10
2024-01-24T08:30:46.494Z,0.40
2024-01-24T08:33:17.390Z,0.10
2024-01-24T08:35:47.136Z,0.20
2024-01-24T08:38:19.452Z,0.35
2024-01-24T08:40:52.767Z,0.10
2024-01-24T08:43:20.395Z,0.20
2024-01-24T08:45:49.560Z,0.10
2024-01-24T08:48:44.483Z,0.20
2024-01-24T08:51:18.481Z,0.10
2024-01-24T08:53:48.831Z,0.40
2024-01-24T08:56:20.406Z,0.32
2024-01-24T08:58:47.920Z,0.50
2024-01-24T09:01:15.920Z,0.20
2024-01-24T09:03:45.028Z,0.35
2024-01-24T09:06:21.357Z,0.30
2024-01-24T09:08:54.999Z,0.20
2024-01-24T09:11:27.264Z,0.40
2024-01-24T09:13:56.689Z,0.40
2024-01-24T09:16:24.460Z,0.30
2024-01-24T09:18:54.940Z,0.20
2024-01-24T09:21:27.987Z,0.20
2024-01-24T09:24:00.938Z,0.40
2024-01-24T09:26:33.353Z,0.20
2024-01-24T09:29:24.533Z,0.20
2024-01-24T09:31:53.529Z,0.30
2024-01-24T09:34:32.352Z,0.20
2024-01-24T09:37:02.580Z,0.20
2024-01-24T09:39:30.545Z,0.20
2024-01-24T09:41:58.835Z,0.65
2024-01-24T09:44:28.654Z,0.30
2024-01-24T09:46:57.139Z,0.45
2024-01-24T09:49:25.286Z,0.20
2024-01-24T09:52:02.789Z,0.30
2024-01-24T09:54:37.663Z,0.22
2024-01-24T09:57:13.402Z,1.02
2024-01-24T09:59:41.349Z,0.20
2024-01-24T10:02:09.966Z,0.20
2024-01-24T10:04:39.346Z,0.32
2024-01-24T10:07:10.761Z,0.20
2024-01-24T10:12:33.265Z,0.10
2024-01-24T10:15:02.488Z,0.35
2024-01-24T10:17:30.685Z,0.50
2024-01-24T10:20:00.925Z,0.40
2024-01-24T10:22:29.790Z,0.47
2024-01-24T10:25:03.078Z,0.30
2024-01-24T10:27:34.964Z,0.30
2024-01-24T10:30:14.695Z,0.30
2024-01-24T10:32:50.314Z,0.30
2024-01-24T10:35:22.002Z,0.43
2024-01-24T10:37:56.632Z,0.17
2024-01-24T10:40:30.337Z,0.45
2024-01-24T10:43:09.047Z,0.40
2024-01-24T10:45:38.782Z,0.63
2024-01-24T10:48:09.815Z,0.70
2024-01-24T10:50:42.018Z,0.85
2024-01-24T10:53:16.488Z,1.30
2024-01-24T10:55:43.409Z,0.82
2024-01-24T10:58:17.669Z,1.30
2024-01-24T11:00:44.801Z,0.90
2024-01-24T11:03:12.255Z,0.80
2024-01-24T11:05:51.799Z,1.00
2024-01-24T11:08:36.283Z,1.27
2024-01-24T11:11:14.457Z,1.27
2024-01-24T11:13:44.185Z,0.85
2024-01-24T11:16:26.783Z,0.93
2024-01-24T11:19:00.089Z,1.33
2024-01-24T11:21:33.455Z,1.15
2024-01-24T11:24:00.744Z,1.17
2024-01-24T11:26:27.915Z,1.10
2024-01-24T11:29:14.701Z,1.02
2024-01-24T11:31:46.972Z,1.60
2024-01-24T11:34:15.754Z,1.92
2024-01-24T11:36:50.209Z,2.05
2024-01-24T11:39:32.064Z,1.63
2024-01-24T11:42:45.765Z,1.15
2024-01-24T11:45:28.962Z,1.15
2024-01-24T11:47:57.970Z,1.42
2024-01-24T11:50:25.232Z,1.17
2024-01-24T11:53:14.568Z,1.08
2024-01-24T11:55:58.442Z,1.48
2024-01-24T11:58:30.435Z,1.48
2024-01-24T12:01:04.674Z,1.02
2024-01-24T12:03:32.819Z,1.10
2024-01-24T12:06:01.101Z,1.50
2024-01-24T12:08:30.717Z,1.25
2024-01-24T12:11:00.692Z,2.28
2024-01-24T12:13:29.060Z,0.93
2024-01-24T12:15:57.001Z,0.95
2024-01-24T12:18:24.590Z,1.20
2024-01-24T12:20:56.856Z,1.30
2024-01-24T12:23:26.265Z,1.15
2024-01-24T12:25:55.134Z,1.17
2024-01-24T12:28:29.016Z,1.27
2024-01-24T12:30:59.051Z,1.23
2024-01-24T12:33:26.876Z,1.10
2024-01-24T12:35:57.280Z,1.05
2024-01-24T12:38:47.226Z,0.90
2024-01-24T12:41:23.733Z,1.42
2024-01-24T12:43:53.982Z,1.40
2024-01-24T12:46:24.396Z,1.40
2024-01-24T12:48:51.285Z,1.33
2024-01-24T12:51:18.452Z,0.77
2024-01-24T12:53:45.936Z,0.90
2024-01-24T12:56:16.955Z,1.20
2024-01-24T12:58:43.821Z,1.15
2024-01-24T13:01:10.527Z,2.40
2024-01-24T13:03:38.297Z,1.50
2024-01-24T13:06:05.594Z,1.15
2024-01-24T13:08:41.941Z,1.20
2024-01-24T13:11:09.273Z,1.42
2024-01-24T13:13:36.333Z,1.35
2024-01-24T13:16:04.289Z,1.55
2024-01-24T13:18:31.170Z,1.35
2024-01-24T13:20:58.306Z,1.23
2024-01-24T13:23:25.809Z,1.33
2024-01-24T13:25:52.496Z,1.83
2024-01-24T13:28:19.501Z,1.50
2024-01-24T13:30:50.520Z,2.03
2024-01-24T13:33:18.211Z,1.77
2024-01-24T13:35:47.344Z,1.73
2024-01-24T13:38:14.818Z,1.67
2024-01-24T13:40:41.804Z,1.55
2024-01-24T13:43:08.730Z,1.60
2024-01-24T13:45:38.549Z,2.13
2024-01-24T13:48:08.484Z,1.02
2024-01-24T13:50:38.842Z,1.45
2024-01-24T13:53:05.799Z,1.40
2024-01-24T13:55:32.869Z,1.58
2024-01-24T13:58:01.805Z,1.27
2024-01-24T14:00:28.848Z,1.52
2024-01-24T14:02:55.779Z,1.23
2024-01-24T14:05:22.693Z,1.40
2024-01-24T14:07:49.535Z,2.25
2024-01-24T14:10:16.311Z,2.33
2024-01-24T14:12:43.642Z,1.65
2024-01-24T14:15:19.869Z,2.20
2024-01-24T14:17:55.030Z,1.50
2024-01-24T14:20:22.114Z,2.05
2024-01-24T14:22:49.184Z,1.70
2024-01-24T14:25:15.890Z,1.48
2024-01-24T14:27:44.209Z,2.08
2024-01-24T14:30:11.713Z,2.08
2024-01-24T14:32:41.627Z,2.40
2024-01-24T14:35:09.209Z,1.73
2024-01-24T14:37:36.439Z,2.05
2024-01-24T14:40:03.698Z,1.90
2024-01-24T14:42:30.839Z,1.70
2024-01-24T14:44:57.610Z,1.80
2024-01-24T14:47:24.224Z,1.67
2024-01-24T14:49:51.170Z,2.58
2024-01-24T14:52:18.197Z,2.03
2024-01-24T14:54:45.833Z,1.73
2024-01-24T14:57:12.598Z,1.60
2024-01-24T14:59:39.259Z,2.30
2024-01-24T15:02:06.512Z,1.63
2024-01-24T15:04:33.384Z,1.88
2024-01-24T15:07:00.517Z,1.48
2024-01-24T15:09:27.354Z,1.80
2024-01-24T15:12:03.483Z,2.65
2024-01-24T15:14:30.817Z,1.98
2024-01-24T15:16:58.725Z,2.28
2024-01-24T15:19:30.033Z,1.90
2024-01-24T15:21:57.745Z,1.30
2024-01-24T15:24:38.638Z,1.90
2024-01-24T15:27:12.236Z,1.52
2024-01-24T15:29:40.295Z,1.98
2024-01-24T15:32:17.197Z,1.48
2024-01-24T15:34:44.522Z,1.60
2024-01-24T15:37:11.484Z,2.60
2024-01-24T15:39:43.957Z,1.75
2024-01-24T15:42:13.643Z,1.70
2024-01-24T15:44:43.934Z,1.63
2024-01-24T15:47:10.902Z,1.27
2024-01-24T15:49:39.077Z,1.58
2024-01-24T15:52:06.311Z,2.17
2024-01-24T15:54:37.476Z,2.13
2024-01-24T15:57:09.064Z,2.10
2024-01-24T15:59:38.847Z,2.00
2024-01-24T16:02:05.858Z,2.45
2024-01-24T16:04:34.788Z,2.63
2024-01-24T16:07:02.154Z,2.42
2024-01-24T16:09:29.498Z,2.15
2024-01-24T16:11:56.377Z,1.85
2024-01-24T16:14:28.185Z,2.20
2024-01-24T16:16:56.196Z,2.08
2024-01-24T16:19:23.759Z,2.13
2024-01-24T16:21:54.606Z,2.72
2024-01-24T16:24:21.488Z,2.28
2024-01-24T16:26:48.308Z,1.48
2024-01-24T16:29:15.470Z,2.45
2024-01-24T16:31:45.826Z,2.13
2024-01-24T16:34:12.802Z,1.67
2024-01-24T16:36:39.757Z,2.30
2024-01-24T16:39:06.734Z,1.90
2024-01-24T16:41:33.609Z,1.52
2024-01-24T16:44:00.580Z,1.70
2024-01-24T16:46:27.451Z,2.15
2024-01-24T16:48:56.493Z,2.03
2024-01-24T16:51:24.129Z,2.53
2024-01-24T16:53:51.062Z,2.13
2024-01-24T16:56:17.991Z,2.28
2024-01-24T16:58:44.902Z,2.15
2024-01-24T17:01:15.351Z,1.63
2024-01-24T17:03:48.792Z,1.90
2024-01-24T17:06:19.874Z,2.20
2024-01-24T17:08:50.106Z,2.05
2024-01-24T17:11:20.115Z,1.98
2024-01-24T17:13:59.692Z,1.55
2024-01-24T17:16:27.949Z,2.50
2024-01-24T17:18:54.755Z,3.22
2024-01-24T17:21:21.914Z,1.58
2024-01-24T17:23:49.215Z,1.42
2024-01-24T17:26:20.524Z,3.08
2024-01-24T17:28:47.468Z,2.22
2024-01-24T17:31:14.620Z,1.77
2024-01-24T17:33:41.325Z,1.90
2024-01-24T17:36:08.546Z,2.13
2024-01-24T17:38:35.656Z,2.03
2024-01-24T17:41:02.864Z,2.15
2024-01-24T17:43:31.017Z,1.67
2024-01-24T17:45:58.335Z,2.08
2024-01-24T17:48:25.310Z,2.25
2024-01-24T17:50:52.615Z,1.98
2024-01-24T17:53:19.654Z,2.05
2024-01-24T17:55:47.274Z,1.23
2024-01-24T17:58:14.334Z,2.25
2024-01-24T18:00:41.146Z,2.00
2024-01-24T18:03:08.570Z,2.45
2024-01-24T18:05:36.307Z,2.15
2024-01-24T18:08:08.046Z,3.05
2024-01-24T18:10:36.107Z,1.60
2024-01-24T18:13:28.928Z,2.60
2024-01-24T18:15:56.666Z,1.60
2024-01-24T18:18:26.295Z,2.03
2024-01-24T18:20:54.760Z,1.45
2024-01-24T18:23:22.481Z,1.30
2024-01-24T18:25:49.738Z,1.95
2024-01-24T18:28:17.618Z,2.30
2024-01-24T18:30:44.788Z,1.85
2024-01-24T18:33:14.756Z,2.80
2024-01-24T18:35:44.374Z,1.92
2024-01-24T18:38:11.135Z,2.72
2024-01-24T18:40:37.979Z,2.08
2024-01-24T18:43:05.097Z,2.20
2024-01-24T18:45:32.109Z,2.47
2024-01-24T18:47:59.516Z,1.73
2024-01-24T18:50:30.290Z,1.80
2024-01-24T18:52:57.059Z,3.22
2024-01-24T18:55:23.934Z,1.70
2024-01-24T18:57:51.157Z,1.88
2024-01-24T19:00:18.981Z,1.30
2024-01-24T19:02:49.063Z,2.28
2024-01-24T19:05:19.873Z,2.50
2024-01-24T19:07:52.490Z,1.63
2024-01-24T19:10:19.365Z,1.95
2024-01-24T19:12:46.581Z,2.65
2024-01-24T19:15:13.447Z,1.90
2024-01-24T19:17:40.907Z,1.92
2024-01-24T19:20:08.344Z,1.60
2024-01-24T19:22:35.207Z,2.00
2024-01-24T19:25:05.937Z,1.42
2024-01-24T19:27:33.111Z,1.98
2024-01-24T19:29:59.843Z,2.10
2024-01-24T19:32:26.668Z,3.38
2024-01-24T19:34:55.879Z,2.20
2024-01-24T19:37:23.637Z,1.45
2024-01-24T19:39:50.500Z,2.10
2024-01-24T19:42:17.928Z,1.88
2024-01-24T19:44:44.740Z,1.52
2024-01-24T19:47:54.031Z,2.42
2024-01-24T19:50:46.708Z,1.83
2024-01-24T19:53:57.394Z,1.77
2024-01-24T19:59:47.923Z,1.95
2024-01-24T20:02:14.957Z,1.42
2024-01-24T20:04:49.386Z,2.20
2024-01-24T20:07:19.568Z,1.67
2024-01-24T20:09:46.625Z,2.17
2024-01-24T20:12:13.604Z,2.05
2024-01-24T20:14:40.501Z,1.92
2024-01-24T20:17:07.442Z,2.15
2024-01-24T20:19:34.485Z,3.33
2024-01-24T20:22:01.261Z,1.95
2024-01-24T20:24:28.313Z,2.15
2024-01-24T20:26:55.063Z,2.28
2024-01-24T20:29:26.527Z,2.30
2024-01-24T20:31:56.586Z,2.03
2024-01-24T20:34:23.484Z,1.67
2024-01-24T20:36:50.384Z,1.77
2024-01-24T20:39:19.568Z,1.60
2024-01-24T20:41:47.884Z,2.78
2024-01-24T20:44:20.492Z,1.80
2024-01-24T20:46:47.226Z,1.98
2024-01-24T20:49:17.385Z,2.40
2024-01-24T20:51:47.952Z,1.77
2024-01-24T20:54:18.674Z,2.78
2024-01-24T20:56:45.558Z,1.70
2024-01-24T20:59:12.497Z,1.50
2024-01-24T21:01:39.443Z,2.08
2024-01-24T21:04:06.551Z,2.13
2024-01-24T21:06:47.711Z,1.83
2024-01-24T21:09:18.779Z,1.90
2024-01-24T21:11:48.821Z,3.35
2024-01-24T21:14:15.618Z,1.83
2024-01-24T21:16:44.200Z,1.80
2024-01-24T21:19:17.506Z,2.50
2024-01-24T21:21:44.952Z,1.83
2024-01-24T21:24:13.895Z,2.65
2024-01-24T21:26:41.157Z,1.58
2024-01-24T21:29:07.954Z,1.95
2024-01-24T21:31:34.752Z,1.83
2024-01-24T21:34:02.340Z,2.30
2024-01-24T21:36:29.129Z,1.90
2024-01-24T21:38:55.873Z,1.92
2024-01-24T21:41:22.532Z,1.80
2024-01-24T21:43:49.377Z,1.75
2024-01-24T21:46:16.570Z,1.55
2024-01-24T21:48:43.290Z,1.73
2024-01-24T21:51:09.972Z,2.50
2024-01-24T21:53:36.701Z,2.03
2024-01-24T21:56:03.502Z,2.67
2024-01-24T21:58:30.236Z,1.95
2024-01-24T22:00:57.104Z,2.13
2024-01-24T22:03:23.893Z,2.42
2024-01-24T22:05:50.562Z,1.65
2024-01-24T22:08:19.483Z,1.33
2024-01-24T22:10:46.497Z,1.60
2024-01-24T22:13:13.429Z,2.25
2024-01-24T22:15:40.490Z,2.08
2024-01-24T22:18:08.287Z,1.60
2024-01-24T22:20:35.460Z,1.85
2024-01-24T22:23:02.181Z,1.88
2024-01-24T22:25:29.463Z,1.75
2024-01-24T22:27:56.921Z,1.52
2024-01-24T22:30:23.884Z,1.70
2024-01-24T22:32:50.692Z,1.55
2024-01-24T22:35:18.708Z,1.52
2024-01-24T22:37:45.585Z,1.60
2024-01-24T22:40:12.421Z,2.58
2024-01-24T22:42:43.000Z,2.10
2024-01-24T22:45:39.309Z,1.50
2024-01-24T22:48:07.177Z,2.05
2024-01-24T22:50:34.244Z,1.50
2024-01-24T22:53:01.182Z,1.83
2024-01-24T22:55:28.078Z,1.52
2024-01-24T22:57:55.048Z,1.73
2024-01-24T23:00:23.090Z,2.00
2024-01-24T23:02:50.103Z,1.63
2024-01-24T23:05:17.642Z,1.88
2024-01-24T23:07:45.291Z,1.60
2024-01-24T23:10:12.232Z,2.03
2024-01-24T23:12:53.136Z,2.40
2024-01-24T23:15:24.198Z,2.45
2024-01-24T23:17:53.598Z,1.80
2024-01-24T23:20:22.355Z,2.20
2024-01-24T23:22:51.390Z,1.67
2024-01-24T23:25:19.080Z,1.70
2024-01-24T23:27:46.570Z,2.03
2024-01-24T23:30:17.324Z,1.40
2024-01-24T23:32:48.674Z,1.70
2024-01-24T23:35:16.581Z,1.80
2024-01-24T23:37:44.345Z,1.85
2024-01-24T23:40:12.479Z,1.25
2024-01-24T23:42:39.950Z,1.83
2024-01-24T23:45:07.040Z,1.70
2024-01-24T23:47:33.831Z,1.98
2024-01-24T23:50:02.653Z,1.50
2024-01-24T23:52:29.809Z,1.73
2024-01-24T23:54:56.567Z,2.40
2024-01-24T23:57:23.332Z,1.55
2024-01-24T23:59:50.136Z,1.90
